sensor_id;sensor_type;location;lat;lon;timestamp;temperature;humidity
24462;DHT22;12631;50.860;5.714;2022-11-25T00:01:07;10.30;99.90
24462;DHT22;12631;50.860;5.714;2022-11-25T00:03:35;10.30;99.90
24462;DHT22;12631;50.860;5.714;2022-11-25T00:06:10;10.40;99.90
24462;DHT22;12631;50.860;5.714;2022-11-25T00:08:37;10.40;99.90
24462;DHT22;12631;50.860;5.714;2022-11-25T00:11:06;10.40;99.90
24462;DHT22;12631;50.860;5.714;2022-11-25T00:13:35;10.40;99.90
24462;DHT22;12631;50.860;5.714;2022-11-25T00:16:03;10.40;99.90
24462;DHT22;12631;50.860;5.714;2022-11-25T00:18:31;10.40;99.90
24462;DHT22;12631;50.860;5.714;2022-11-25T00:21:04;10.50;99.90
24462;DHT22;12631;50.860;5.714;2022-11-25T00:23:32;10.50;99.90
24462;DHT22;12631;50.860;5.714;2022-11-25T00:26:07;10.50;99.90
24462;DHT22;12631;50.860;5.714;2022-11-25T00:28:34;10.60;99.90
24462;DHT22;12631;50.860;5.714;2022-11-25T00:31:06;10.60;99.90
24462;DHT22;12631;50.860;5.714;2022-11-25T00:33:33;10.60;99.90
24462;DHT22;12631;50.860;5.714;2022-11-25T00:36:01;10.60;99.90
24462;DHT22;12631;50.860;5.714;2022-11-25T00:38:28;10.70;99.90
24462;DHT22;12631;50.860;5.714;2022-11-25T00:40:55;10.60;99.90
24462;DHT22;12631;50.860;5.714;2022-11-25T00:43:38;10.60;99.90
24462;DHT22;12631;50.860;5.714;2022-11-25T00:46:21;10.60;99.90
24462;DHT22;12631;50.860;5.714;2022-11-25T00:48:48;10.70;99.90
24462;DHT22;12631;50.860;5.714;2022-11-25T00:51:15;10.70;99.90
24462;DHT22;12631;50.860;5.714;2022-11-25T00:53:43;10.70;99.90
24462;DHT22;12631;50.860;5.714;2022-11-25T00:56:10;10.70;99.90
24462;DHT22;12631;50.860;5.714;2022-11-25T00:58:43;10.70;99.90
24462;DHT22;12631;50.860;5.714;2022-11-25T01:01:11;10.70;99.90
24462;DHT22;12631;50.860;5.714;2022-11-25T01:03:38;10.70;99.90
24462;DHT22;12631;50.860;5.714;2022-11-25T01:06:06;10.70;99.90
24462;DHT22;12631;50.860;5.714;2022-11-25T01:08:34;10.70;99.90
24462;DHT22;12631;50.860;5.714;2022-11-25T01:11:04;10.70;99.90
24462;DHT22;12631;50.860;5.714;2022-11-25T01:13:31;10.70;95.40
24462;DHT22;12631;50.860;5.714;2022-11-25T01:16:01;10.70;89.40
24462;DHT22;12631;50.860;5.714;2022-11-25T01:18:29;10.70;93.50
24462;DHT22;12631;50.860;5.714;2022-11-25T01:21:04;10.70;83.70
24462;DHT22;12631;50.860;5.714;2022-11-25T01:23:32;10.70;41.50
24462;DHT22;12631;50.860;5.714;2022-11-25T01:26:01;10.70;62.30
24462;DHT22;12631;50.860;5.714;2022-11-25T01:28:28;10.70;72.40
24462;DHT22;12631;50.860;5.714;2022-11-25T01:31:01;10.80;13.50
24462;DHT22;12631;50.860;5.714;2022-11-25T01:33:28;10.80;1.00
24462;DHT22;12631;50.860;5.714;2022-11-25T01:35:59;10.80;1.00
24462;DHT22;12631;50.860;5.714;2022-11-25T01:38:27;10.80;1.00
24462;DHT22;12631;50.860;5.714;2022-11-25T01:40:55;10.80;1.00
24462;DHT22;12631;50.860;5.714;2022-11-25T01:43:23;10.80;1.00
24462;DHT22;12631;50.860;5.714;2022-11-25T01:45:50;10.80;1.00
24462;DHT22;12631;50.860;5.714;2022-11-25T01:48:23;10.70;1.00
24462;DHT22;12631;50.860;5.714;2022-11-25T01:50:52;10.70;1.00
24462;DHT22;12631;50.860;5.714;2022-11-25T01:53:21;10.70;1.00
24462;DHT22;12631;50.860;5.714;2022-11-25T01:55:52;10.70;1.00
24462;DHT22;12631;50.860;5.714;2022-11-25T01:58:25;10.70;5.00
24462;DHT22;12631;50.860;5.714;2022-11-25T02:00:54;10.70;1.00
24462;DHT22;12631;50.860;5.714;2022-11-25T02:03:26;10.70;1.00
24462;DHT22;12631;50.860;5.714;2022-11-25T02:06:03;10.70;1.00
24462;DHT22;12631;50.860;5.714;2022-11-25T02:08:32;10.60;4.90
24462;DHT22;12631;50.860;5.714;2022-11-25T02:11:01;10.70;1.00
24462;DHT22;12631;50.860;5.714;2022-11-25T02:13:29;10.60;2.20
24462;DHT22;12631;50.860;5.714;2022-11-25T02:15:58;10.60;25.70
24462;DHT22;12631;50.860;5.714;2022-11-25T02:18:26;10.60;71.60
24462;DHT22;12631;50.860;5.714;2022-11-25T02:20:53;10.50;99.90
24462;DHT22;12631;50.860;5.714;2022-11-25T02:23:28;10.50;99.90
24462;DHT22;12631;50.860;5.714;2022-11-25T02:25:58;10.60;99.90
24462;DHT22;12631;50.860;5.714;2022-11-25T02:28:26;10.60;87.20
24462;DHT22;12631;50.860;5.714;2022-11-25T02:30:55;10.70;29.50
24462;DHT22;12631;50.860;5.714;2022-11-25T02:33:23;10.70;1.00
24462;DHT22;12631;50.860;5.714;2022-11-25T02:35:54;10.80;1.00
24462;DHT22;12631;50.860;5.714;2022-11-25T02:38:24;10.80;1.00
24462;DHT22;12631;50.860;5.714;2022-11-25T02:40:55;10.80;1.00
24462;DHT22;12631;50.860;5.714;2022-11-25T02:43:25;10.80;1.00
24462;DHT22;12631;50.860;5.714;2022-11-25T02:45:57;10.70;99.90
24462;DHT22;12631;50.860;5.714;2022-11-25T02:48:26;10.50;99.90
24462;DHT22;12631;50.860;5.714;2022-11-25T02:50:54;10.30;99.90
24462;DHT22;12631;50.860;5.714;2022-11-25T02:53:21;10.20;99.90
24462;DHT22;12631;50.860;5.714;2022-11-25T02:55:48;10.10;99.90
24462;DHT22;12631;50.860;5.714;2022-11-25T02:58:16;10.00;99.90
24462;DHT22;12631;50.860;5.714;2022-11-25T03:00:44;10.00;99.90
24462;DHT22;12631;50.860;5.714;2022-11-25T03:03:12;10.00;99.90
24462;DHT22;12631;50.860;5.714;2022-11-25T03:05:39;9.90;99.90
24462;DHT22;12631;50.860;5.714;2022-11-25T03:08:07;9.90;99.90
24462;DHT22;12631;50.860;5.714;2022-11-25T03:10:35;9.90;99.90
24462;DHT22;12631;50.860;5.714;2022-11-25T03:13:03;9.90;99.90
24462;DHT22;12631;50.860;5.714;2022-11-25T03:15:30;9.80;99.90
24462;DHT22;12631;50.860;5.714;2022-11-25T03:17:59;9.90;99.90
24462;DHT22;12631;50.860;5.714;2022-11-25T03:20:26;9.80;99.90
24462;DHT22;12631;50.860;5.714;2022-11-25T03:22:53;9.80;99.90
24462;DHT22;12631;50.860;5.714;2022-11-25T03:25:20;9.80;99.90
24462;DHT22;12631;50.860;5.714;2022-11-25T03:27:48;9.70;99.90
24462;DHT22;12631;50.860;5.714;2022-11-25T03:30:17;9.70;99.90
24462;DHT22;12631;50.860;5.714;2022-11-25T03:32:44;9.70;99.90
24462;DHT22;12631;50.860;5.714;2022-11-25T03:35:13;9.70;99.90
24462;DHT22;12631;50.860;5.714;2022-11-25T03:37:41;9.60;99.90
24462;DHT22;12631;50.860;5.714;2022-11-25T03:40:09;9.60;99.90
24462;DHT22;12631;50.860;5.714;2022-11-25T03:42:37;9.60;99.90
24462;DHT22;12631;50.860;5.714;2022-11-25T03:45:05;9.50;99.90
24462;DHT22;12631;50.860;5.714;2022-11-25T03:47:33;9.50;99.90
24462;DHT22;12631;50.860;5.714;2022-11-25T03:50:00;9.50;99.90
24462;DHT22;12631;50.860;5.714;2022-11-25T03:52:28;9.50;99.90
24462;DHT22;12631;50.860;5.714;2022-11-25T03:54:55;9.40;99.90
24462;DHT22;12631;50.860;5.714;2022-11-25T03:57:23;9.40;99.90
24462;DHT22;12631;50.860;5.714;2022-11-25T03:59:50;9.40;99.90
24462;DHT22;12631;50.860;5.714;2022-11-25T04:02:17;9.40;99.90
24462;DHT22;12631;50.860;5.714;2022-11-25T04:04:44;9.40;99.90
24462;DHT22;12631;50.860;5.714;2022-11-25T04:07:11;9.30;99.90
24462;DHT22;12631;50.860;5.714;2022-11-25T04:09:39;9.30;99.90
24462;DHT22;12631;50.860;5.714;2022-11-25T04:12:08;9.20;99.90
24462;DHT22;12631;50.860;5.714;2022-11-25T04:14:52;9.20;99.90
24462;DHT22;12631;50.860;5.714;2022-11-25T04:17:19;9.10;99.90
24462;DHT22;12631;50.860;5.714;2022-11-25T04:19:46;9.10;99.90
24462;DHT22;12631;50.860;5.714;2022-11-25T04:22:13;9.20;99.90
24462;DHT22;12631;50.860;5.714;2022-11-25T04:24:42;9.30;99.90
24462;DHT22;12631;50.860;5.714;2022-11-25T04:27:09;9.30;99.90
24462;DHT22;12631;50.860;5.714;2022-11-25T04:29:36;9.30;99.90
24462;DHT22;12631;50.860;5.714;2022-11-25T04:32:04;9.30;99.90
24462;DHT22;12631;50.860;5.714;2022-11-25T04:34:31;9.30;99.90
24462;DHT22;12631;50.860;5.714;2022-11-25T04:36:58;9.30;99.90
24462;DHT22;12631;50.860;5.714;2022-11-25T04:39:25;9.40;99.90
24462;DHT22;12631;50.860;5.714;2022-11-25T04:41:54;9.40;99.90
24462;DHT22;12631;50.860;5.714;2022-11-25T04:44:41;9.30;99.90
24462;DHT22;12631;50.860;5.714;2022-11-25T04:47:08;9.30;99.90
24462;DHT22;12631;50.860;5.714;2022-11-25T04:49:35;9.30;99.90
24462;DHT22;12631;50.860;5.714;2022-11-25T04:52:02;9.30;99.90
24462;DHT22;12631;50.860;5.714;2022-11-25T04:54:29;9.30;99.90
24462;DHT22;12631;50.860;5.714;2022-11-25T04:56:58;9.30;99.90
24462;DHT22;12631;50.860;5.714;2022-11-25T04:59:25;9.30;99.90
24462;DHT22;12631;50.860;5.714;2022-11-25T05:02:12;9.30;99.90
24462;DHT22;12631;50.860;5.714;2022-11-25T05:04:41;9.30;99.90
24462;DHT22;12631;50.860;5.714;2022-11-25T05:07:08;9.30;99.90
24462;DHT22;12631;50.860;5.714;2022-11-25T05:09:36;9.30;99.90
24462;DHT22;12631;50.860;5.714;2022-11-25T05:12:06;9.30;99.90
24462;DHT22;12631;50.860;5.714;2022-11-25T05:14:33;9.30;99.90
24462;DHT22;12631;50.860;5.714;2022-11-25T05:17:01;9.20;99.90
24462;DHT22;12631;50.860;5.714;2022-11-25T05:19:28;9.30;99.90
24462;DHT22;12631;50.860;5.714;2022-11-25T05:21:56;9.20;99.90
24462;DHT22;12631;50.860;5.714;2022-11-25T05:24:23;9.20;99.90
24462;DHT22;12631;50.860;5.714;2022-11-25T05:26:51;9.10;99.90
24462;DHT22;12631;50.860;5.714;2022-11-25T05:29:19;9.10;99.90
24462;DHT22;12631;50.860;5.714;2022-11-25T05:31:47;9.10;99.90
24462;DHT22;12631;50.860;5.714;2022-11-25T05:34:14;9.10;99.90
24462;DHT22;12631;50.860;5.714;2022-11-25T05:36:41;9.10;99.90
24462;DHT22;12631;50.860;5.714;2022-11-25T05:39:08;9.10;99.90
24462;DHT22;12631;50.860;5.714;2022-11-25T05:41:35;9.20;99.90
24462;DHT22;12631;50.860;5.714;2022-11-25T05:44:02;9.20;99.90
24462;DHT22;12631;50.860;5.714;2022-11-25T05:46:31;9.20;99.90
24462;DHT22;12631;50.860;5.714;2022-11-25T05:48:58;9.20;99.90
24462;DHT22;12631;50.860;5.714;2022-11-25T05:51:28;9.20;99.90
24462;DHT22;12631;50.860;5.714;2022-11-25T05:53:55;9.10;99.90
24462;DHT22;12631;50.860;5.714;2022-11-25T05:56:23;9.10;99.90
24462;DHT22;12631;50.860;5.714;2022-11-25T05:58:50;9.10;99.90
24462;DHT22;12631;50.860;5.714;2022-11-25T06:01:20;9.10;99.90
24462;DHT22;12631;50.860;5.714;2022-11-25T06:03:49;9.00;99.90
24462;DHT22;12631;50.860;5.714;2022-11-25T06:06:17;9.10;99.90
24462;DHT22;12631;50.860;5.714;2022-11-25T06:08:44;9.10;99.90
24462;DHT22;12631;50.860;5.714;2022-11-25T06:11:14;9.00;99.90
24462;DHT22;12631;50.860;5.714;2022-11-25T06:13:42;9.00;99.90
24462;DHT22;12631;50.860;5.714;2022-11-25T06:16:11;9.10;99.90
24462;DHT22;12631;50.860;5.714;2022-11-25T06:18:39;9.10;99.90
24462;DHT22;12631;50.860;5.714;2022-11-25T06:21:08;9.00;99.90
24462;DHT22;12631;50.860;5.714;2022-11-25T06:23:36;9.00;99.90
24462;DHT22;12631;50.860;5.714;2022-11-25T06:26:05;9.00;99.90
24462;DHT22;12631;50.860;5.714;2022-11-25T06:28:33;9.00;99.90
24462;DHT22;12631;50.860;5.714;2022-11-25T06:31:05;8.90;99.90
24462;DHT22;12631;50.860;5.714;2022-11-25T06:33:33;8.80;99.90
24462;DHT22;12631;50.860;5.714;2022-11-25T06:36:02;8.80;99.90
24462;DHT22;12631;50.860;5.714;2022-11-25T06:38:31;8.80;99.90
24462;DHT22;12631;50.860;5.714;2022-11-25T06:40:59;8.80;99.90
24462;DHT22;12631;50.860;5.714;2022-11-25T06:43:27;8.80;99.90
24462;DHT22;12631;50.860;5.714;2022-11-25T06:45:54;8.80;99.90
24462;DHT22;12631;50.860;5.714;2022-11-25T06:48:27;8.70;99.90
24462;DHT22;12631;50.860;5.714;2022-11-25T06:50:55;8.70;99.90
24462;DHT22;12631;50.860;5.714;2022-11-25T06:53:23;8.70;99.90
24462;DHT22;12631;50.860;5.714;2022-11-25T06:56:02;8.70;99.90
24462;DHT22;12631;50.860;5.714;2022-11-25T06:58:30;8.70;99.90
24462;DHT22;12631;50.860;5.714;2022-11-25T07:01:01;8.60;99.90
24462;DHT22;12631;50.860;5.714;2022-11-25T07:03:29;8.60;99.90
24462;DHT22;12631;50.860;5.714;2022-11-25T07:05:57;8.60;99.90
24462;DHT22;12631;50.860;5.714;2022-11-25T07:08:24;8.60;99.90
24462;DHT22;12631;50.860;5.714;2022-11-25T07:10:52;8.70;99.90
24462;DHT22;12631;50.860;5.714;2022-11-25T07:13:21;8.70;99.90
24462;DHT22;12631;50.860;5.714;2022-11-25T07:15:48;8.90;99.90
24462;DHT22;12631;50.860;5.714;2022-11-25T07:18:15;8.80;99.90
24462;DHT22;12631;50.860;5.714;2022-11-25T07:20:43;8.80;99.90
24462;DHT22;12631;50.860;5.714;2022-11-25T07:23:10;8.80;99.90
24462;DHT22;12631;50.860;5.714;2022-11-25T07:25:37;8.80;99.90
24462;DHT22;12631;50.860;5.714;2022-11-25T07:28:05;8.80;99.90
24462;DHT22;12631;50.860;5.714;2022-11-25T07:30:34;8.90;99.90
24462;DHT22;12631;50.860;5.714;2022-11-25T07:33:04;8.90;99.90
24462;DHT22;12631;50.860;5.714;2022-11-25T07:35:33;8.90;99.90
24462;DHT22;12631;50.860;5.714;2022-11-25T07:38:00;8.90;99.90
24462;DHT22;12631;50.860;5.714;2022-11-25T07:40:27;8.80;99.90
24462;DHT22;12631;50.860;5.714;2022-11-25T07:42:54;8.80;99.90
24462;DHT22;12631;50.860;5.714;2022-11-25T07:45:22;8.90;99.90
24462;DHT22;12631;50.860;5.714;2022-11-25T07:47:52;8.90;99.90
24462;DHT22;12631;50.860;5.714;2022-11-25T07:50:19;8.90;99.90
24462;DHT22;12631;50.860;5.714;2022-11-25T07:52:46;8.90;99.90
24462;DHT22;12631;50.860;5.714;2022-11-25T07:55:14;9.00;99.90
24462;DHT22;12631;50.860;5.714;2022-11-25T07:57:41;9.00;99.90
24462;DHT22;12631;50.860;5.714;2022-11-25T08:00:09;9.00;99.90
24462;DHT22;12631;50.860;5.714;2022-11-25T08:02:37;9.20;99.90
24462;DHT22;12631;50.860;5.714;2022-11-25T08:05:07;9.50;99.90
24462;DHT22;12631;50.860;5.714;2022-11-25T08:07:34;9.40;99.90
24462;DHT22;12631;50.860;5.714;2022-11-25T08:10:02;9.80;99.90
24462;DHT22;12631;50.860;5.714;2022-11-25T08:12:31;9.90;99.90
24462;DHT22;12631;50.860;5.714;2022-11-25T08:14:58;10.10;99.90
24462;DHT22;12631;50.860;5.714;2022-11-25T08:17:25;10.30;99.90
24462;DHT22;12631;50.860;5.714;2022-11-25T08:19:53;10.60;99.90
24462;DHT22;12631;50.860;5.714;2022-11-25T08:22:21;10.70;99.90
24462;DHT22;12631;50.860;5.714;2022-11-25T08:24:49;11.00;99.90
24462;DHT22;12631;50.860;5.714;2022-11-25T08:27:16;10.90;99.90
24462;DHT22;12631;50.860;5.714;2022-11-25T08:29:43;11.20;99.90
24462;DHT22;12631;50.860;5.714;2022-11-25T08:32:10;11.40;99.90
24462;DHT22;12631;50.860;5.714;2022-11-25T08:34:38;11.20;99.90
24462;DHT22;12631;50.860;5.714;2022-11-25T08:37:05;11.40;99.90
24462;DHT22;12631;50.860;5.714;2022-11-25T08:39:33;11.60;99.90
24462;DHT22;12631;50.860;5.714;2022-11-25T08:42:02;11.70;99.90
24462;DHT22;12631;50.860;5.714;2022-11-25T08:44:30;11.70;99.90
24462;DHT22;12631;50.860;5.714;2022-11-25T08:46:57;11.90;99.90
24462;DHT22;12631;50.860;5.714;2022-11-25T08:49:26;12.30;99.90
24462;DHT22;12631;50.860;5.714;2022-11-25T08:51:55;12.40;99.90
24462;DHT22;12631;50.860;5.714;2022-11-25T08:54:23;12.30;99.90
24462;DHT22;12631;50.860;5.714;2022-11-25T08:56:51;12.40;99.90
24462;DHT22;12631;50.860;5.714;2022-11-25T08:59:18;12.30;39.40
24462;DHT22;12631;50.860;5.714;2022-11-25T09:01:47;12.60;1.00
24462;DHT22;12631;50.860;5.714;2022-11-25T09:04:14;12.40;1.00
24462;DHT22;12631;50.860;5.714;2022-11-25T09:06:42;12.70;1.00
24462;DHT22;12631;50.860;5.714;2022-11-25T09:09:09;11.80;1.00
24462;DHT22;12631;50.860;5.714;2022-11-25T09:11:36;11.60;68.40
24462;DHT22;12631;50.860;5.714;2022-11-25T09:14:05;11.60;99.90
24462;DHT22;12631;50.860;5.714;2022-11-25T09:16:32;11.70;99.90
24462;DHT22;12631;50.860;5.714;2022-11-25T09:19:00;11.70;55.40
24462;DHT22;12631;50.860;5.714;2022-11-25T09:21:27;11.50;97.90
24462;DHT22;12631;50.860;5.714;2022-11-25T09:23:54;11.40;99.90
24462;DHT22;12631;50.860;5.714;2022-11-25T09:26:23;11.80;99.90
24462;DHT22;12631;50.860;5.714;2022-11-25T09:28:51;12.50;38.10
24462;DHT22;12631;50.860;5.714;2022-11-25T09:31:20;12.80;1.00
24462;DHT22;12631;50.860;5.714;2022-11-25T09:33:48;13.00;1.00
24462;DHT22;12631;50.860;5.714;2022-11-25T09:36:17;13.00;99.90
24462;DHT22;12631;50.860;5.714;2022-11-25T09:38:44;13.00;1.00
24462;DHT22;12631;50.860;5.714;2022-11-25T09:41:26;13.30;1.00
24462;DHT22;12631;50.860;5.714;2022-11-25T09:44:23;12.70;1.00
24462;DHT22;12631;50.860;5.714;2022-11-25T09:47:15;12.50;1.00
24462;DHT22;12631;50.860;5.714;2022-11-25T09:49:58;12.20;1.00
24462;DHT22;12631;50.860;5.714;2022-11-25T09:52:34;12.40;1.00
24462;DHT22;12631;50.860;5.714;2022-11-25T09:55:05;12.80;1.00
24462;DHT22;12631;50.860;5.714;2022-11-25T09:57:46;12.60;64.70
24462;DHT22;12631;50.860;5.714;2022-11-25T10:00:19;12.30;99.90
24462;DHT22;12631;50.860;5.714;2022-11-25T10:03:00;12.60;1.00
24462;DHT22;12631;50.860;5.714;2022-11-25T10:05:33;12.80;1.00
24462;DHT22;12631;50.860;5.714;2022-11-25T10:08:07;12.40;1.00
24462;DHT22;12631;50.860;5.714;2022-11-25T10:10:40;12.30;1.00
24462;DHT22;12631;50.860;5.714;2022-11-25T10:13:14;11.60;1.00
24462;DHT22;12631;50.860;5.714;2022-11-25T10:15:45;11.30;89.50
24462;DHT22;12631;50.860;5.714;2022-11-25T10:18:20;11.10;99.90
24462;DHT22;12631;50.860;5.714;2022-11-25T10:20:50;11.10;99.90
24462;DHT22;12631;50.860;5.714;2022-11-25T10:23:21;11.90;99.90
24462;DHT22;12631;50.860;5.714;2022-11-25T10:25:52;12.20;1.00
24462;DHT22;12631;50.860;5.714;2022-11-25T10:28:22;12.70;1.00
24462;DHT22;12631;50.860;5.714;2022-11-25T10:30:58;13.10;1.00
24462;DHT22;12631;50.860;5.714;2022-11-25T10:33:31;13.10;1.00
24462;DHT22;12631;50.860;5.714;2022-11-25T10:36:03;13.30;1.00
24462;DHT22;12631;50.860;5.714;2022-11-25T10:38:40;12.90;1.00
24462;DHT22;12631;50.860;5.714;2022-11-25T10:41:13;13.30;99.90
24462;DHT22;12631;50.860;5.714;2022-11-25T10:43:41;13.40;1.00
24462;DHT22;12631;50.860;5.714;2022-11-25T10:46:16;13.10;1.00
24462;DHT22;12631;50.860;5.714;2022-11-25T10:48:55;12.90;1.00
24462;DHT22;12631;50.860;5.714;2022-11-25T10:51:37;13.40;99.90
24462;DHT22;12631;50.860;5.714;2022-11-25T10:54:11;13.20;51.20
24462;DHT22;12631;50.860;5.714;2022-11-25T10:56:42;13.10;99.90
24462;DHT22;12631;50.860;5.714;2022-11-25T10:59:14;12.60;1.00
24462;DHT22;12631;50.860;5.714;2022-11-25T11:01:47;12.60;1.00
24462;DHT22;12631;50.860;5.714;2022-11-25T11:04:15;12.40;1.00
24462;DHT22;12631;50.860;5.714;2022-11-25T11:06:45;12.30;27.70
24462;DHT22;12631;50.860;5.714;2022-11-25T11:09:32;13.00;99.90
24462;DHT22;12631;50.860;5.714;2022-11-25T11:12:11;13.00;99.90
24462;DHT22;12631;50.860;5.714;2022-11-25T11:14:39;13.10;1.00
24462;DHT22;12631;50.860;5.714;2022-11-25T11:17:23;13.30;1.00
24462;DHT22;12631;50.860;5.714;2022-11-25T11:20:17;14.00;1.00
24462;DHT22;12631;50.860;5.714;2022-11-25T11:22:48;13.70;99.90
24462;DHT22;12631;50.860;5.714;2022-11-25T11:25:30;12.70;1.00
24462;DHT22;12631;50.860;5.714;2022-11-25T11:27:59;12.10;1.00
24462;DHT22;12631;50.860;5.714;2022-11-25T11:30:28;11.70;12.80
24462;DHT22;12631;50.860;5.714;2022-11-25T11:33:02;11.50;99.90
24462;DHT22;12631;50.860;5.714;2022-11-25T11:35:46;11.30;99.90
24462;DHT22;12631;50.860;5.714;2022-11-25T11:38:26;11.30;1.00
24462;DHT22;12631;50.860;5.714;2022-11-25T11:41:04;11.20;1.00
24462;DHT22;12631;50.860;5.714;2022-11-25T11:43:55;11.30;1.00
24462;DHT22;12631;50.860;5.714;2022-11-25T11:46:32;11.50;1.00
24462;DHT22;12631;50.860;5.714;2022-11-25T11:49:14;11.90;1.00
24462;DHT22;12631;50.860;5.714;2022-11-25T11:51:52;12.00;1.00
24462;DHT22;12631;50.860;5.714;2022-11-25T11:54:30;13.00;99.90
24462;DHT22;12631;50.860;5.714;2022-11-25T11:57:03;13.40;1.00
24462;DHT22;12631;50.860;5.714;2022-11-25T11:59:44;13.30;99.90
24462;DHT22;12631;50.860;5.714;2022-11-25T12:02:21;12.80;1.00
24462;DHT22;12631;50.860;5.714;2022-11-25T12:04:54;13.10;1.00
24462;DHT22;12631;50.860;5.714;2022-11-25T12:07:29;13.70;99.90
24462;DHT22;12631;50.860;5.714;2022-11-25T12:10:02;13.80;99.90
24462;DHT22;12631;50.860;5.714;2022-11-25T12:12:34;13.40;99.90
24462;DHT22;12631;50.860;5.714;2022-11-25T12:15:07;13.40;99.90
24462;DHT22;12631;50.860;5.714;2022-11-25T12:17:43;13.20;1.00
24462;DHT22;12631;50.860;5.714;2022-11-25T12:20:17;12.40;1.00
24462;DHT22;12631;50.860;5.714;2022-11-25T12:22:56;12.50;99.90
24462;DHT22;12631;50.860;5.714;2022-11-25T12:25:28;12.40;1.00
24462;DHT22;12631;50.860;5.714;2022-11-25T12:27:59;12.30;1.00
24462;DHT22;12631;50.860;5.714;2022-11-25T12:30:33;12.00;99.90
24462;DHT22;12631;50.860;5.714;2022-11-25T12:33:06;12.00;1.00
24462;DHT22;12631;50.860;5.714;2022-11-25T12:35:48;11.90;1.00
24462;DHT22;12631;50.860;5.714;2022-11-25T12:38:29;12.20;1.00
24462;DHT22;12631;50.860;5.714;2022-11-25T12:41:10;12.70;1.00
24462;DHT22;12631;50.860;5.714;2022-11-25T12:43:42;12.90;1.00
24462;DHT22;12631;50.860;5.714;2022-11-25T12:46:18;13.30;1.00
24462;DHT22;12631;50.860;5.714;2022-11-25T12:48:47;13.30;99.90
24462;DHT22;12631;50.860;5.714;2022-11-25T12:51:28;13.10;99.90
24462;DHT22;12631;50.860;5.714;2022-11-25T12:54:09;12.60;99.90
24462;DHT22;12631;50.860;5.714;2022-11-25T12:56:50;12.30;1.00
24462;DHT22;12631;50.860;5.714;2022-11-25T12:59:40;12.50;98.50
24462;DHT22;12631;50.860;5.714;2022-11-25T13:05:20;13.00;99.90
24462;DHT22;12631;50.860;5.714;2022-11-25T13:08:00;13.20;26.40
24462;DHT22;12631;50.860;5.714;2022-11-25T13:10:46;13.00;1.00
24462;DHT22;12631;50.860;5.714;2022-11-25T13:13:33;12.80;97.00
24462;DHT22;12631;50.860;5.714;2022-11-25T13:16:05;12.50;99.90
24462;DHT22;12631;50.860;5.714;2022-11-25T13:18:37;12.50;99.90
24462;DHT22;12631;50.860;5.714;2022-11-25T13:21:07;12.50;1.00
24462;DHT22;12631;50.860;5.714;2022-11-25T13:23:44;12.40;1.00
24462;DHT22;12631;50.860;5.714;2022-11-25T13:26:36;12.50;1.00
24462;DHT22;12631;50.860;5.714;2022-11-25T13:32:27;12.20;1.00
24462;DHT22;12631;50.860;5.714;2022-11-25T13:38:35;12.20;99.90
24462;DHT22;12631;50.860;5.714;2022-11-25T13:41:19;12.30;99.20
24462;DHT22;12631;50.860;5.714;2022-11-25T13:44:02;12.40;1.00
24462;DHT22;12631;50.860;5.714;2022-11-25T13:46:37;12.30;1.00
24462;DHT22;12631;50.860;5.714;2022-11-25T13:49:18;12.20;1.00
24462;DHT22;12631;50.860;5.714;2022-11-25T13:51:48;12.20;1.00
24462;DHT22;12631;50.860;5.714;2022-11-25T13:54:19;12.10;99.90
24462;DHT22;12631;50.860;5.714;2022-11-25T13:59:52;11.90;99.90
24462;DHT22;12631;50.860;5.714;2022-11-25T14:05:37;11.70;1.00
24462;DHT22;12631;50.860;5.714;2022-11-25T14:08:28;11.60;99.90
24462;DHT22;12631;50.860;5.714;2022-11-25T14:11:22;11.60;99.90
24462;DHT22;12631;50.860;5.714;2022-11-25T14:14:11;11.50;99.90
24462;DHT22;12631;50.860;5.714;2022-11-25T14:17:02;11.50;99.90
24462;DHT22;12631;50.860;5.714;2022-11-25T14:19:57;11.50;1.00
24462;DHT22;12631;50.860;5.714;2022-11-25T14:25:36;11.70;99.90
24462;DHT22;12631;50.860;5.714;2022-11-25T14:28:20;11.70;1.00
24462;DHT22;12631;50.860;5.714;2022-11-25T14:30:50;11.60;1.00
24462;DHT22;12631;50.860;5.714;2022-11-25T14:33:24;11.60;99.90
24462;DHT22;12631;50.860;5.714;2022-11-25T14:35:59;11.60;1.00
24462;DHT22;12631;50.860;5.714;2022-11-25T14:38:36;11.50;1.00
24462;DHT22;12631;50.860;5.714;2022-11-25T14:41:07;11.50;96.00
24462;DHT22;12631;50.860;5.714;2022-11-25T14:43:39;11.50;99.90
24462;DHT22;12631;50.860;5.714;2022-11-25T14:46:10;11.50;99.90
24462;DHT22;12631;50.860;5.714;2022-11-25T14:48:42;11.40;99.90
